sensor_id;sensor_type;location;lat;lon;timestamp;P1;durP1;ratioP1;P2;durP2;ratioP2
71973;SDS011;59840;52.122;5.404;2024-01-11T00:02:24;8.43;;;3.78;;
71973;SDS011;59840;52.122;5.404;2024-01-11T00:04:50;9.52;;;3.88;;
71973;SDS011;59840;52.122;5.404;2024-01-11T00:07:17;6.50;;;3.65;;
71973;SDS011;59840;52.122;5.404;2024-01-11T00:09:44;8.65;;;3.47;;
71973;SDS011;59840;52.122;5.404;2024-01-11T00:12:11;7.20;;;3.30;;
71973;SDS011;59840;52.122;5.404;2024-01-11T00:14:37;7.38;;;3.65;;
71973;SDS011;59840;52.122;5.404;2024-01-11T00:17:04;8.10;;;4.57;;
71973;SDS011;59840;52.122;5.404;2024-01-11T00:19:31;9.38;;;3.88;;
71973;SDS011;59840;52.122;5.404;2024-01-11T00:21:58;11.30;;;4.00;;
71973;SDS011;59840;52.122;5.404;2024-01-11T00:24:24;7.17;;;2.80;;
71973;SDS011;59840;52.122;5.404;2024-01-11T00:26:51;9.32;;;3.78;;
71973;SDS011;59840;52.122;5.404;2024-01-11T00:29:17;10.82;;;3.65;;
71973;SDS011;59840;52.122;5.404;2024-01-11T00:31:44;9.20;;;3.88;;
71973;SDS011;59840;52.122;5.404;2024-01-11T00:34:11;5.50;;;2.97;;
71973;SDS011;59840;52.122;5.404;2024-01-11T00:36:37;7.03;;;3.03;;
71973;SDS011;59840;52.122;5.404;2024-01-11T00:39:04;6.43;;;3.40;;
71973;SDS011;59840;52.122;5.404;2024-01-11T00:41:31;8.32;;;4.00;;
71973;SDS011;59840;52.122;5.404;2024-01-11T00:43:58;7.80;;;3.20;;
71973;SDS011;59840;52.122;5.404;2024-01-11T00:46:24;7.90;;;3.20;;
71973;SDS011;59840;52.122;5.404;2024-01-11T00:48:51;6.00;;;3.10;;
71973;SDS011;59840;52.122;5.404;2024-01-11T00:51:22;7.13;;;3.28;;
71973;SDS011;59840;52.122;5.404;2024-01-11T00:53:48;4.95;;;3.10;;
71973;SDS011;59840;52.122;5.404;2024-01-11T00:56:18;4.88;;;2.28;;
71973;SDS011;59840;52.122;5.404;2024-01-11T00:58:45;8.57;;;3.35;;
71973;SDS011;59840;52.122;5.404;2024-01-11T01:01:12;8.87;;;3.77;;
71973;SDS011;59840;52.122;5.404;2024-01-11T01:03:39;9.45;;;3.83;;
71973;SDS011;59840;52.122;5.404;2024-01-11T01:06:06;7.85;;;3.33;;
71973;SDS011;59840;52.122;5.404;2024-01-11T01:08:33;6.40;;;3.58;;
71973;SDS011;59840;52.122;5.404;2024-01-11T01:10:59;9.60;;;3.20;;
71973;SDS011;59840;52.122;5.404;2024-01-11T01:13:26;8.10;;;3.83;;
71973;SDS011;59840;52.122;5.404;2024-01-11T01:15:53;5.63;;;3.20;;
71973;SDS011;59840;52.122;5.404;2024-01-11T01:18:19;5.25;;;2.85;;
71973;SDS011;59840;52.122;5.404;2024-01-11T01:20:46;8.50;;;3.63;;
71973;SDS011;59840;52.122;5.404;2024-01-11T01:23:13;10.63;;;4.28;;
71973;SDS011;59840;52.122;5.404;2024-01-11T01:25:40;8.53;;;3.43;;
71973;SDS011;59840;52.122;5.404;2024-01-11T01:28:06;7.28;;;3.38;;
71973;SDS011;59840;52.122;5.404;2024-01-11T01:30:33;9.27;;;3.53;;
71973;SDS011;59840;52.122;5.404;2024-01-11T01:32:59;6.35;;;3.17;;
71973;SDS011;59840;52.122;5.404;2024-01-11T01:35:26;7.07;;;4.53;;
71973;SDS011;59840;52.122;5.404;2024-01-11T01:37:53;10.90;;;3.60;;
71973;SDS011;59840;52.122;5.404;2024-01-11T01:40:19;7.28;;;3.53;;
71973;SDS011;59840;52.122;5.404;2024-01-11T01:42:46;9.48;;;4.15;;
71973;SDS011;59840;52.122;5.404;2024-01-11T01:45:14;9.40;;;3.75;;
71973;SDS011;59840;52.122;5.404;2024-01-11T01:47:42;7.30;;;3.63;;
71973;SDS011;59840;52.122;5.404;2024-01-11T01:50:10;8.73;;;3.50;;
71973;SDS011;59840;52.122;5.404;2024-01-11T01:52:38;7.25;;;3.70;;
71973;SDS011;59840;52.122;5.404;2024-01-11T01:55:09;6.53;;;3.03;;
71973;SDS011;59840;52.122;5.404;2024-01-11T01:57:36;8.35;;;3.38;;
71973;SDS011;59840;52.122;5.404;2024-01-11T02:00:06;8.85;;;4.00;;
71973;SDS011;59840;52.122;5.404;2024-01-11T02:02:37;10.43;;;3.90;;
71973;SDS011;59840;52.122;5.404;2024-01-11T02:05:06;6.90;;;3.47;;
71973;SDS011;59840;52.122;5.404;2024-01-11T02:07:34;9.32;;;3.63;;
71973;SDS011;59840;52.122;5.404;2024-01-11T02:10:01;9.40;;;3.47;;
71973;SDS011;59840;52.122;5.404;2024-01-11T02:12:29;6.63;;;3.80;;
71973;SDS011;59840;52.122;5.404;2024-01-11T02:14:55;7.03;;;3.20;;
71973;SDS011;59840;52.122;5.404;2024-01-11T02:17:22;10.77;;;4.43;;
71973;SDS011;59840;52.122;5.404;2024-01-11T02:19:48;6.30;;;3.42;;
71973;SDS011;59840;52.122;5.404;2024-01-11T02:22:19;9.55;;;3.88;;
71973;SDS011;59840;52.122;5.404;2024-01-11T02:24:48;6.25;;;3.17;;
71973;SDS011;59840;52.122;5.404;2024-01-11T02:27:15;8.43;;;3.67;;
71973;SDS011;59840;52.122;5.404;2024-01-11T02:29:41;7.25;;;4.22;;
71973;SDS011;59840;52.122;5.404;2024-01-11T02:32:08;8.68;;;4.72;;
71973;SDS011;59840;52.122;5.404;2024-01-11T02:34:35;8.23;;;4.40;;
71973;SDS011;59840;52.122;5.404;2024-01-11T02:37:02;8.80;;;3.97;;
71973;SDS011;59840;52.122;5.404;2024-01-11T02:39:28;12.17;;;4.93;;
71973;SDS011;59840;52.122;5.404;2024-01-11T02:41:56;11.50;;;4.07;;
71973;SDS011;59840;52.122;5.404;2024-01-11T02:44:24;8.13;;;3.45;;
71973;SDS011;59840;52.122;5.404;2024-01-11T02:46:51;9.75;;;4.28;;
71973;SDS011;59840;52.122;5.404;2024-01-11T02:49:17;13.52;;;4.25;;
71973;SDS011;59840;52.122;5.404;2024-01-11T02:51:44;11.27;;;4.33;;
71973;SDS011;59840;52.122;5.404;2024-01-11T02:54:11;9.85;;;4.82;;
71973;SDS011;59840;52.122;5.404;2024-01-11T02:56:38;13.32;;;4.35;;
71973;SDS011;59840;52.122;5.404;2024-01-11T02:59:04;10.23;;;3.75;;
71973;SDS011;59840;52.122;5.404;2024-01-11T03:01:31;7.53;;;4.05;;
71973;SDS011;59840;52.122;5.404;2024-01-11T03:03:59;8.97;;;4.10;;
71973;SDS011;59840;52.122;5.404;2024-01-11T03:06:26;13.30;;;5.45;;
71973;SDS011;59840;52.122;5.404;2024-01-11T03:08:53;10.55;;;4.13;;
71973;SDS011;59840;52.122;5.404;2024-01-11T03:11:19;9.18;;;4.10;;
71973;SDS011;59840;52.122;5.404;2024-01-11T03:13:46;11.25;;;4.10;;
71973;SDS011;59840;52.122;5.404;2024-01-11T03:16:12;11.20;;;4.00;;
71973;SDS011;59840;52.122;5.404;2024-01-11T03:18:39;9.00;;;4.43;;
71973;SDS011;59840;52.122;5.404;2024-01-11T03:21:06;9.65;;;4.82;;
71973;SDS011;59840;52.122;5.404;2024-01-11T03:23:33;14.18;;;6.05;;
71973;SDS011;59840;52.122;5.404;2024-01-11T03:26:00;16.17;;;5.72;;
71973;SDS011;59840;52.122;5.404;2024-01-11T03:28:27;14.73;;;5.80;;
71973;SDS011;59840;52.122;5.404;2024-01-11T03:30:53;11.60;;;4.63;;
71973;SDS011;59840;52.122;5.404;2024-01-11T03:33:20;14.35;;;6.40;;
71973;SDS011;59840;52.122;5.404;2024-01-11T03:35:47;14.75;;;5.20;;
71973;SDS011;59840;52.122;5.404;2024-01-11T03:38:14;15.10;;;7.22;;
71973;SDS011;59840;52.122;5.404;2024-01-11T03:40:41;12.37;;;5.13;;
71973;SDS011;59840;52.122;5.404;2024-01-11T03:43:07;11.23;;;5.22;;
71973;SDS011;59840;52.122;5.404;2024-01-11T03:45:34;12.00;;;5.47;;
71973;SDS011;59840;52.122;5.404;2024-01-11T03:48:00;10.18;;;6.03;;
71973;SDS011;59840;52.122;5.404;2024-01-11T03:50:27;13.38;;;6.05;;
71973;SDS011;59840;52.122;5.404;2024-01-11T03:52:53;14.57;;;6.17;;
71973;SDS011;59840;52.122;5.404;2024-01-11T03:55:20;19.63;;;7.53;;
71973;SDS011;59840;52.122;5.404;2024-01-11T03:57:47;9.98;;;5.13;;
71973;SDS011;59840;52.122;5.404;2024-01-11T04:00:13;9.18;;;5.50;;
71973;SDS011;59840;52.122;5.404;2024-01-11T04:02:40;16.45;;;6.13;;
71973;SDS011;59840;52.122;5.404;2024-01-11T04:05:07;16.17;;;6.60;;
71973;SDS011;59840;52.122;5.404;2024-01-11T04:07:34;16.25;;;7.45;;
71973;SDS011;59840;52.122;5.404;2024-01-11T04:10:00;13.88;;;5.93;;
71973;SDS011;59840;52.122;5.404;2024-01-11T04:12:27;14.32;;;6.35;;
71973;SDS011;59840;52.122;5.404;2024-01-11T04:14:54;10.45;;;5.15;;
71973;SDS011;59840;52.122;5.404;2024-01-11T04:17:20;14.47;;;6.63;;
71973;SDS011;59840;52.122;5.404;2024-01-11T04:19:47;13.68;;;7.00;;
71973;SDS011;59840;52.122;5.404;2024-01-11T04:22:13;15.73;;;6.75;;
71973;SDS011;59840;52.122;5.404;2024-01-11T04:24:41;14.85;;;6.95;;
71973;SDS011;59840;52.122;5.404;2024-01-11T04:27:08;13.80;;;7.00;;
71973;SDS011;59840;52.122;5.404;2024-01-11T04:29:35;22.17;;;9.30;;
71973;SDS011;59840;52.122;5.404;2024-01-11T04:32:01;12.98;;;6.35;;
71973;SDS011;59840;52.122;5.404;2024-01-11T04:34:29;13.23;;;6.40;;
71973;SDS011;59840;52.122;5.404;2024-01-11T04:36:56;12.32;;;5.65;;
71973;SDS011;59840;52.122;5.404;2024-01-11T04:39:22;9.48;;;5.75;;
71973;SDS011;59840;52.122;5.404;2024-01-11T04:41:49;13.87;;;6.50;;
71973;SDS011;59840;52.122;5.404;2024-01-11T04:44:15;13.88;;;6.35;;
71973;SDS011;59840;52.122;5.404;2024-01-11T04:46:43;12.07;;;5.70;;
71973;SDS011;59840;52.122;5.404;2024-01-11T04:49:09;14.23;;;4.88;;
71973;SDS011;59840;52.122;5.404;2024-01-11T04:51:36;16.27;;;7.60;;
71973;SDS011;59840;52.122;5.404;2024-01-11T04:54:02;20.30;;;7.17;;
71973;SDS011;59840;52.122;5.404;2024-01-11T04:56:29;14.18;;;7.60;;
71973;SDS011;59840;52.122;5.404;2024-01-11T04:58:56;18.70;;;8.30;;
71973;SDS011;59840;52.122;5.404;2024-01-11T05:01:22;16.80;;;7.25;;
71973;SDS011;59840;52.122;5.404;2024-01-11T05:03:49;17.02;;;6.60;;
71973;SDS011;59840;52.122;5.404;2024-01-11T05:06:16;23.67;;;7.47;;
71973;SDS011;59840;52.122;5.404;2024-01-11T05:08:47;16.98;;;7.50;;
71973;SDS011;59840;52.122;5.404;2024-01-11T05:11:16;16.80;;;7.28;;
71973;SDS011;59840;52.122;5.404;2024-01-11T05:13:43;18.17;;;8.30;;
71973;SDS011;59840;52.122;5.404;2024-01-11T05:16:21;14.38;;;7.75;;
71973;SDS011;59840;52.122;5.404;2024-01-11T05:18:52;15.93;;;7.97;;
71973;SDS011;59840;52.122;5.404;2024-01-11T05:21:19;14.73;;;6.90;;
71973;SDS011;59840;52.122;5.404;2024-01-11T05:23:47;12.38;;;5.85;;
71973;SDS011;59840;52.122;5.404;2024-01-11T05:26:15;20.52;;;9.02;;
71973;SDS011;59840;52.122;5.404;2024-01-11T05:28:43;18.92;;;8.43;;
71973;SDS011;59840;52.122;5.404;2024-01-11T05:31:11;21.23;;;9.27;;
71973;SDS011;59840;52.122;5.404;2024-01-11T05:33:39;26.65;;;9.02;;
71973;SDS011;59840;52.122;5.404;2024-01-11T05:36:06;25.15;;;9.48;;
71973;SDS011;59840;52.122;5.404;2024-01-11T05:38:33;23.23;;;8.10;;
71973;SDS011;59840;52.122;5.404;2024-01-11T05:41:00;21.60;;;9.38;;
71973;SDS011;59840;52.122;5.404;2024-01-11T05:43:28;18.67;;;9.03;;
71973;SDS011;59840;52.122;5.404;2024-01-11T05:45:55;20.48;;;8.85;;
71973;SDS011;59840;52.122;5.404;2024-01-11T05:48:21;23.10;;;9.63;;
71973;SDS011;59840;52.122;5.404;2024-01-11T05:50:48;25.75;;;10.23;;
71973;SDS011;59840;52.122;5.404;2024-01-11T05:53:14;24.45;;;10.80;;
71973;SDS011;59840;52.122;5.404;2024-01-11T05:55:41;20.87;;;8.03;;
71973;SDS011;59840;52.122;5.404;2024-01-11T05:58:08;22.30;;;9.32;;
71973;SDS011;59840;52.122;5.404;2024-01-11T06:00:34;20.23;;;8.48;;
71973;SDS011;59840;52.122;5.404;2024-01-11T06:03:01;20.20;;;8.40;;
71973;SDS011;59840;52.122;5.404;2024-01-11T06:05:28;15.77;;;7.25;;
71973;SDS011;59840;52.122;5.404;2024-01-11T06:07:54;21.10;;;8.03;;
71973;SDS011;59840;52.122;5.404;2024-01-11T06:10:21;16.83;;;6.95;;
71973;SDS011;59840;52.122;5.404;2024-01-11T06:12:48;21.45;;;8.77;;
71973;SDS011;59840;52.122;5.404;2024-01-11T06:15:14;18.88;;;8.10;;
71973;SDS011;59840;52.122;5.404;2024-01-11T06:17:40;19.20;;;8.70;;
71973;SDS011;59840;52.122;5.404;2024-01-11T06:20:07;16.37;;;6.70;;
71973;SDS011;59840;52.122;5.404;2024-01-11T06:22:36;17.45;;;8.10;;
71973;SDS011;59840;52.122;5.404;2024-01-11T06:25:03;19.40;;;7.25;;
71973;SDS011;59840;52.122;5.404;2024-01-11T06:27:30;17.92;;;7.70;;
71973;SDS011;59840;52.122;5.404;2024-01-11T06:29:56;16.52;;;8.13;;
71973;SDS011;59840;52.122;5.404;2024-01-11T06:32:23;19.47;;;8.43;;
71973;SDS011;59840;52.122;5.404;2024-01-11T06:34:50;14.90;;;7.75;;
71973;SDS011;59840;52.122;5.404;2024-01-11T06:37:16;15.27;;;7.68;;
71973;SDS011;59840;52.122;5.404;2024-01-11T06:39:43;24.15;;;8.90;;
71973;SDS011;59840;52.122;5.404;2024-01-11T06:42:09;18.42;;;7.93;;
71973;SDS011;59840;52.122;5.404;2024-01-11T06:44:36;20.67;;;8.40;;
71973;SDS011;59840;52.122;5.404;2024-01-11T06:47:02;22.40;;;9.25;;
71973;SDS011;59840;52.122;5.404;2024-01-11T06:49:31;21.90;;;8.65;;
71973;SDS011;59840;52.122;5.404;2024-01-11T06:51:58;21.10;;;8.20;;
71973;SDS011;59840;52.122;5.404;2024-01-11T06:54:25;21.75;;;8.82;;
71973;SDS011;59840;52.122;5.404;2024-01-11T06:56:51;20.13;;;7.73;;
71973;SDS011;59840;52.122;5.404;2024-01-11T06:59:18;20.98;;;8.90;;
71973;SDS011;59840;52.122;5.404;2024-01-11T07:01:45;19.38;;;8.20;;
71973;SDS011;59840;52.122;5.404;2024-01-11T07:04:12;13.85;;;7.68;;
71973;SDS011;59840;52.122;5.404;2024-01-11T07:06:38;18.08;;;7.68;;
71973;SDS011;59840;52.122;5.404;2024-01-11T07:09:05;17.50;;;7.97;;
71973;SDS011;59840;52.122;5.404;2024-01-11T07:11:32;20.42;;;8.48;;
71973;SDS011;59840;52.122;5.404;2024-01-11T07:13:59;17.05;;;8.10;;
71973;SDS011;59840;52.122;5.404;2024-01-11T07:16:25;18.77;;;7.75;;
71973;SDS011;59840;52.122;5.404;2024-01-11T07:18:52;20.70;;;8.93;;
71973;SDS011;59840;52.122;5.404;2024-01-11T07:21:22;22.33;;;8.63;;
71973;SDS011;59840;52.122;5.404;2024-01-11T07:23:56;24.25;;;9.32;;
71973;SDS011;59840;52.122;5.404;2024-01-11T07:26:23;21.70;;;9.57;;
71973;SDS011;59840;52.122;5.404;2024-01-11T07:28:50;26.85;;;9.13;;
71973;SDS011;59840;52.122;5.404;2024-01-11T07:31:17;18.38;;;8.15;;
71973;SDS011;59840;52.122;5.404;2024-01-11T07:33:44;20.00;;;8.07;;
71973;SDS011;59840;52.122;5.404;2024-01-11T07:36:11;22.38;;;8.35;;
71973;SDS011;59840;52.122;5.404;2024-01-11T07:38:38;21.20;;;9.30;;
71973;SDS011;59840;52.122;5.404;2024-01-11T07:41:05;26.17;;;9.65;;
71973;SDS011;59840;52.122;5.404;2024-01-11T07:43:32;16.65;;;7.78;;
71973;SDS011;59840;52.122;5.404;2024-01-11T07:46:18;20.60;;;9.97;;
71973;SDS011;59840;52.122;5.404;2024-01-11T07:48:48;18.23;;;8.52;;
71973;SDS011;59840;52.122;5.404;2024-01-11T07:51:15;20.88;;;9.48;;
71973;SDS011;59840;52.122;5.404;2024-01-11T07:53:41;25.00;;;9.68;;
71973;SDS011;59840;52.122;5.404;2024-01-11T07:56:08;20.10;;;9.43;;
71973;SDS011;59840;52.122;5.404;2024-01-11T07:58:34;26.37;;;10.20;;
71973;SDS011;59840;52.122;5.404;2024-01-11T08:01:03;21.92;;;9.70;;
71973;SDS011;59840;52.122;5.404;2024-01-11T08:03:30;25.00;;;9.88;;
71973;SDS011;59840;52.122;5.404;2024-01-11T08:05:57;23.15;;;10.95;;
71973;SDS011;59840;52.122;5.404;2024-01-11T08:08:24;23.05;;;10.50;;
71973;SDS011;59840;52.122;5.404;2024-01-11T08:10:50;17.07;;;8.37;;
71973;SDS011;59840;52.122;5.404;2024-01-11T08:13:17;22.05;;;9.25;;
71973;SDS011;59840;52.122;5.404;2024-01-11T08:15:45;22.15;;;8.68;;
71973;SDS011;59840;52.122;5.404;2024-01-11T08:18:11;22.35;;;9.35;;
71973;SDS011;59840;52.122;5.404;2024-01-11T08:20:38;19.45;;;8.75;;
71973;SDS011;59840;52.122;5.404;2024-01-11T08:23:05;21.73;;;9.47;;
71973;SDS011;59840;52.122;5.404;2024-01-11T08:25:33;22.38;;;9.15;;
71973;SDS011;59840;52.122;5.404;2024-01-11T08:27:59;20.58;;;10.43;;
71973;SDS011;59840;52.122;5.404;2024-01-11T08:30:26;20.80;;;8.35;;
71973;SDS011;59840;52.122;5.404;2024-01-11T08:32:53;20.17;;;9.20;;
71973;SDS011;59840;52.122;5.404;2024-01-11T08:35:19;17.50;;;8.60;;
71973;SDS011;59840;52.122;5.404;2024-01-11T08:37:46;21.95;;;9.13;;
71973;SDS011;59840;52.122;5.404;2024-01-11T08:40:14;20.15;;;9.45;;
71973;SDS011;59840;52.122;5.404;2024-01-11T08:42:40;25.35;;;11.43;;
71973;SDS011;59840;52.122;5.404;2024-01-11T08:45:09;20.48;;;10.02;;
71973;SDS011;59840;52.122;5.404;2024-01-11T08:47:36;28.27;;;9.50;;
71973;SDS011;59840;52.122;5.404;2024-01-11T08:50:04;22.67;;;10.48;;
71973;SDS011;59840;52.122;5.404;2024-01-11T08:52:32;19.42;;;8.90;;
71973;SDS011;59840;52.122;5.404;2024-01-11T08:55:00;30.05;;;10.30;;
71973;SDS011;59840;52.122;5.404;2024-01-11T08:57:26;26.45;;;10.63;;
71973;SDS011;59840;52.122;5.404;2024-01-11T08:59:53;24.80;;;8.40;;
71973;SDS011;59840;52.122;5.404;2024-01-11T09:02:20;18.67;;;8.65;;
71973;SDS011;59840;52.122;5.404;2024-01-11T09:04:52;24.35;;;9.18;;
71973;SDS011;59840;52.122;5.404;2024-01-11T09:07:18;24.92;;;9.73;;
71973;SDS011;59840;52.122;5.404;2024-01-11T09:09:46;14.82;;;7.32;;
71973;SDS011;59840;52.122;5.404;2024-01-11T09:12:22;16.30;;;7.43;;
71973;SDS011;59840;52.122;5.404;2024-01-11T09:14:48;22.65;;;10.35;;
71973;SDS011;59840;52.122;5.404;2024-01-11T09:17:15;22.90;;;9.27;;
71973;SDS011;59840;52.122;5.404;2024-01-11T09:19:42;26.55;;;8.73;;
71973;SDS011;59840;52.122;5.404;2024-01-11T09:22:08;22.40;;;9.18;;
71973;SDS011;59840;52.122;5.404;2024-01-11T09:24:36;22.17;;;8.77;;
71973;SDS011;59840;52.122;5.404;2024-01-11T09:27:05;14.73;;;7.13;;
71973;SDS011;59840;52.122;5.404;2024-01-11T09:29:32;13.68;;;6.00;;
71973;SDS011;59840;52.122;5.404;2024-01-11T09:31:59;24.33;;;9.35;;
71973;SDS011;59840;52.122;5.404;2024-01-11T09:34:26;21.98;;;8.77;;
71973;SDS011;59840;52.122;5.404;2024-01-11T09:36:53;20.43;;;8.07;;
71973;SDS011;59840;52.122;5.404;2024-01-11T09:39:19;20.17;;;9.02;;
71973;SDS011;59840;52.122;5.404;2024-01-11T09:41:51;15.90;;;7.05;;
71973;SDS011;59840;52.122;5.404;2024-01-11T09:44:22;24.13;;;9.07;;
71973;SDS011;59840;52.122;5.404;2024-01-11T09:46:50;13.52;;;7.60;;
71973;SDS011;59840;52.122;5.404;2024-01-11T09:49:18;17.63;;;7.07;;
71973;SDS011;59840;52.122;5.404;2024-01-11T09:51:48;18.02;;;7.50;;
71973;SDS011;59840;52.122;5.404;2024-01-11T09:54:15;21.58;;;7.80;;
71973;SDS011;59840;52.122;5.404;2024-01-11T09:56:45;23.35;;;7.85;;
71973;SDS011;59840;52.122;5.404;2024-01-11T09:59:12;26.02;;;7.97;;
71973;SDS011;59840;52.122;5.404;2024-01-11T10:01:40;19.93;;;7.90;;
71973;SDS011;59840;52.122;5.404;2024-01-11T10:04:07;18.30;;;7.68;;
71973;SDS011;59840;52.122;5.404;2024-01-11T10:06:34;21.08;;;7.55;;
71973;SDS011;59840;52.122;5.404;2024-01-11T10:09:04;23.38;;;8.48;;
71973;SDS011;59840;52.122;5.404;2024-01-11T10:11:31;24.42;;;7.28;;
71973;SDS011;59840;52.122;5.404;2024-01-11T10:14:00;20.57;;;7.30;;
71973;SDS011;59840;52.122;5.404;2024-01-11T10:16:28;29.08;;;7.72;;
71973;SDS011;59840;52.122;5.404;2024-01-11T10:18:57;25.27;;;8.75;;
71973;SDS011;59840;52.122;5.404;2024-01-11T10:21:24;21.08;;;7.22;;
71973;SDS011;59840;52.122;5.404;2024-01-11T10:23:51;18.40;;;6.72;;
71973;SDS011;59840;52.122;5.404;2024-01-11T10:26:18;15.27;;;6.53;;
71973;SDS011;59840;52.122;5.404;2024-01-11T10:28:45;26.90;;;7.82;;
71973;SDS011;59840;52.122;5.404;2024-01-11T10:31:12;24.77;;;7.32;;
71973;SDS011;59840;52.122;5.404;2024-01-11T10:33:41;21.92;;;7.20;;
71973;SDS011;59840;52.122;5.404;2024-01-11T10:36:08;22.35;;;7.82;;
71973;SDS011;59840;52.122;5.404;2024-01-11T10:38:38;26.33;;;8.90;;
71973;SDS011;59840;52.122;5.404;2024-01-11T10:41:06;21.27;;;7.07;;
71973;SDS011;59840;52.122;5.404;2024-01-11T10:43:37;18.15;;;6.53;;
71973;SDS011;59840;52.122;5.404;2024-01-11T10:46:04;20.27;;;6.85;;
71973;SDS011;59840;52.122;5.404;2024-01-11T10:48:39;18.58;;;6.60;;
71973;SDS011;59840;52.122;5.404;2024-01-11T10:51:11;23.00;;;8.10;;
71973;SDS011;59840;52.122;5.404;2024-01-11T10:53:45;18.60;;;7.40;;
71973;SDS011;59840;52.122;5.404;2024-01-11T10:56:14;18.55;;;7.43;;
71973;SDS011;59840;52.122;5.404;2024-01-11T10:58:45;18.60;;;6.60;;
71973;SDS011;59840;52.122;5.404;2024-01-11T11:01:13;20.33;;;7.45;;
71973;SDS011;59840;52.122;5.404;2024-01-11T11:03:40;19.43;;;7.13;;
71973;SDS011;59840;52.122;5.404;2024-01-11T11:06:10;23.02;;;7.50;;
71973;SDS011;59840;52.122;5.404;2024-01-11T11:08:39;17.50;;;6.63;;
71973;SDS011;59840;52.122;5.404;2024-01-11T11:11:06;17.20;;;6.75;;
71973;SDS011;59840;52.122;5.404;2024-01-11T11:13:34;17.75;;;6.53;;
71973;SDS011;59840;52.122;5.404;2024-01-11T11:16:01;15.57;;;6.17;;
71973;SDS011;59840;52.122;5.404;2024-01-11T11:18:30;21.35;;;7.85;;
71973;SDS011;59840;52.122;5.404;2024-01-11T11:20:59;21.50;;;7.90;;
71973;SDS011;59840;52.122;5.404;2024-01-11T11:23:27;22.45;;;7.22;;
71973;SDS011;59840;52.122;5.404;2024-01-11T11:25:54;25.98;;;8.82;;
71973;SDS011;59840;52.122;5.404;2024-01-11T11:28:23;18.30;;;6.73;;
71973;SDS011;59840;52.122;5.404;2024-01-11T11:30:52;20.63;;;7.28;;
71973;SDS011;59840;52.122;5.404;2024-01-11T11:33:20;22.08;;;8.85;;
71973;SDS011;59840;52.122;5.404;2024-01-11T11:35:52;19.58;;;7.90;;
71973;SDS011;59840;52.122;5.404;2024-01-11T11:38:28;19.20;;;7.47;;
71973;SDS011;59840;52.122;5.404;2024-01-11T11:40:57;19.03;;;7.33;;
71973;SDS011;59840;52.122;5.404;2024-01-11T11:43:26;17.35;;;7.30;;
71973;SDS011;59840;52.122;5.404;2024-01-11T11:45:53;18.33;;;7.00;;
71973;SDS011;59840;52.122;5.404;2024-01-11T11:51:10;20.48;;;7.72;;
71973;SDS011;59840;52.122;5.404;2024-01-11T11:53:42;17.67;;;6.83;;
71973;SDS011;59840;52.122;5.404;2024-01-11T11:56:09;18.27;;;6.57;;
71973;SDS011;59840;52.122;5.404;2024-01-11T11:58:37;16.05;;;6.85;;
71973;SDS011;59840;52.122;5.404;2024-01-11T12:01:05;20.23;;;6.75;;
71973;SDS011;59840;52.122;5.404;2024-01-11T12:03:35;15.43;;;6.25;;
71973;SDS011;59840;52.122;5.404;2024-01-11T12:06:04;17.70;;;6.87;;
71973;SDS011;59840;52.122;5.404;2024-01-11T12:08:32;21.40;;;7.20;;
71973;SDS011;59840;52.122;5.404;2024-01-11T12:10:58;16.17;;;7.15;;
71973;SDS011;59840;52.122;5.404;2024-01-11T12:13:26;18.27;;;7.28;;
71973;SDS011;59840;52.122;5.404;2024-01-11T12:15:52;20.65;;;6.93;;
71973;SDS011;59840;52.122;5.404;2024-01-11T12:18:19;14.07;;;6.00;;
71973;SDS011;59840;52.122;5.404;2024-01-11T12:20:46;16.52;;;6.47;;
71973;SDS011;59840;52.122;5.404;2024-01-11T12:23:13;17.40;;;6.45;;
71973;SDS011;59840;52.122;5.404;2024-01-11T12:25:41;18.80;;;6.90;;
71973;SDS011;59840;52.122;5.404;2024-01-11T12:28:07;15.27;;;6.68;;
71973;SDS011;59840;52.122;5.404;2024-01-11T12:30:34;18.73;;;6.97;;
71973;SDS011;59840;52.122;5.404;2024-01-11T12:33:01;16.83;;;5.95;;
71973;SDS011;59840;52.122;5.404;2024-01-11T12:35:30;18.27;;;7.13;;
71973;SDS011;59840;52.122;5.404;2024-01-11T12:38:01;16.27;;;7.15;;
71973;SDS011;59840;52.122;5.404;2024-01-11T12:40:33;18.33;;;7.50;;
71973;SDS011;59840;52.122;5.404;2024-01-11T12:43:01;18.00;;;6.30;;
71973;SDS011;59840;52.122;5.404;2024-01-11T12:45:28;16.88;;;6.78;;
71973;SDS011;59840;52.122;5.404;2024-01-11T12:47:56;18.13;;;7.50;;
71973;SDS011;59840;52.122;5.404;2024-01-11T12:50:23;23.13;;;7.15;;
71973;SDS011;59840;52.122;5.404;2024-01-11T12:53:14;15.70;;;6.60;;
71973;SDS011;59840;52.122;5.404;2024-01-11T12:56:01;18.10;;;6.63;;
71973;SDS011;59840;52.122;5.404;2024-01-11T12:58:30;14.55;;;6.07;;
71973;SDS011;59840;52.122;5.404;2024-01-11T13:00:56;15.02;;;6.25;;
71973;SDS011;59840;52.122;5.404;2024-01-11T13:03:24;16.27;;;6.57;;
71973;SDS011;59840;52.122;5.404;2024-01-11T13:05:53;18.15;;;7.18;;
71973;SDS011;59840;52.122;5.404;2024-01-11T13:08:20;15.90;;;6.23;;
71973;SDS011;59840;52.122;5.404;2024-01-11T13:10:47;20.80;;;7.07;;
71973;SDS011;59840;52.122;5.404;2024-01-11T13:13:15;17.75;;;7.10;;
71973;SDS011;59840;52.122;5.404;2024-01-11T13:15:42;12.07;;;6.20;;
71973;SDS011;59840;52.122;5.404;2024-01-11T13:18:08;15.23;;;6.53;;
71973;SDS011;59840;52.122;5.404;2024-01-11T13:20:35;18.23;;;6.70;;
71973;SDS011;59840;52.122;5.404;2024-01-11T13:25:40;15.57;;;5.95;;
71973;SDS011;59840;52.122;5.404;2024-01-11T13:28:08;15.38;;;6.80;;
71973;SDS011;59840;52.122;5.404;2024-01-11T13:30:35;15.30;;;6.13;;
71973;SDS011;59840;52.122;5.404;2024-01-11T13:33:02;14.50;;;6.23;;
71973;SDS011;59840;52.122;5.404;2024-01-11T13:35:30;16.98;;;6.45;;
71973;SDS011;59840;52.122;5.404;2024-01-11T13:37:56;14.90;;;6.65;;
71973;SDS011;59840;52.122;5.404;2024-01-11T13:40:23;13.38;;;6.18;;
71973;SDS011;59840;52.122;5.404;2024-01-11T13:42:50;13.27;;;5.68;;
71973;SDS011;59840;52.122;5.404;2024-01-11T13:45:17;11.30;;;5.70;;
71973;SDS011;59840;52.122;5.404;2024-01-11T13:47:43;12.10;;;6.30;;
71973;SDS011;59840;52.122;5.404;2024-01-11T13:50:10;16.60;;;6.65;;
71973;SDS011;59840;52.122;5.404;2024-01-11T13:52:37;12.57;;;6.43;;
71973;SDS011;59840;52.122;5.404;2024-01-11T13:55:04;16.58;;;6.88;;
71973;SDS011;59840;52.122;5.404;2024-01-11T13:57:30;18.37;;;6.37;;
71973;SDS011;59840;52.122;5.404;2024-01-11T13:59:57;11.85;;;5.80;;
71973;SDS011;59840;52.122;5.404;2024-01-11T14:02:23;20.50;;;6.93;;
71973;SDS011;59840;52.122;5.404;2024-01-11T14:04:50;18.50;;;5.68;;
71973;SDS011;59840;52.122;5.404;2024-01-11T14:07:17;13.80;;;6.25;;
71973;SDS011;59840;52.122;5.404;2024-01-11T14:09:43;13.20;;;5.13;;
71973;SDS011;59840;52.122;5.404;2024-01-11T14:12:10;12.73;;;5.82;;
71973;SDS011;59840;52.122;5.404;2024-01-11T14:14:37;13.80;;;6.60;;
71973;SDS011;59840;52.122;5.404;2024-01-11T14:17:03;14.40;;;5.95;;
71973;SDS011;59840;52.122;5.404;2024-01-11T14:19:30;14.18;;;5.47;;
71973;SDS011;59840;52.122;5.404;2024-01-11T14:21:57;12.33;;;4.73;;
71973;SDS011;59840;52.122;5.404;2024-01-11T14:24:23;12.15;;;5.35;;
71973;SDS011;59840;52.122;5.404;2024-01-11T14:27:01;13.77;;;5.43;;
71973;SDS011;59840;52.122;5.404;2024-01-11T14:29:28;10.30;;;5.20;;
71973;SDS011;59840;52.122;5.404;2024-01-11T14:31:55;12.93;;;5.30;;
71973;SDS011;59840;52.122;5.404;2024-01-11T14:34:22;12.57;;;4.87;;
71973;SDS011;59840;52.122;5.404;2024-01-11T14:36:51;12.23;;;4.63;;
71973;SDS011;59840;52.122;5.404;2024-01-11T14:39:18;9.70;;;4.43;;
71973;SDS011;59840;52.122;5.404;2024-01-11T14:41:45;12.48;;;5.60;;
71973;SDS011;59840;52.122;5.404;2024-01-11T14:44:12;11.65;;;5.78;;